sensor_id;sensor_type;location;lat;lon;timestamp;pressure;altitude;pressure_sealevel;temperature;humidity
75991;BME280;64673;52.276;10.560;2024-02-28T00:01:18;101043.56;;;3.70;100.00
75991;BME280;64673;52.276;10.560;2024-02-28T00:03:43;101047.34;;;3.87;100.00
75991;BME280;64673;52.276;10.560;2024-02-28T00:06:09;101049.38;;;3.92;100.00
75991;BME280;64673;52.276;10.560;2024-02-28T00:08:35;101050.91;;;3.75;100.00
75991;BME280;64673;52.276;10.560;2024-02-28T00:11:00;101052.38;;;3.64;100.00
75991;BME280;64673;52.276;10.560;2024-02-28T00:13:26;101057.91;;;3.69;100.00
75991;BME280;64673;52.276;10.560;2024-02-28T00:15:51;101054.22;;;3.70;100.00
75991;BME280;64673;52.276;10.560;2024-02-28T00:18:16;101053.97;;;3.72;100.00
75991;BME280;64673;52.276;10.560;2024-02-28T00:20:44;101054.84;;;3.65;100.00
75991;BME280;64673;52.276;10.560;2024-02-28T00:23:09;101057.50;;;3.65;100.00
75991;BME280;64673;52.276;10.560;2024-02-28T00:25:35;101056.88;;;3.70;100.00
75991;BME280;64673;52.276;10.560;2024-02-28T00:28:00;101053.56;;;3.75;100.00
75991;BME280;64673;52.276;10.560;2024-02-28T00:30:26;101049.50;;;3.65;100.00
75991;BME280;64673;52.276;10.560;2024-02-28T00:32:53;101052.38;;;3.64;100.00
75991;BME280;64673;52.276;10.560;2024-02-28T00:35:19;101054.84;;;3.65;100.00
75991;BME280;64673;52.276;10.560;2024-02-28T00:37:44;101054.06;;;3.52;100.00
75991;BME280;64673;52.276;10.560;2024-02-28T00:40:10;101056.53;;;3.53;100.00
75991;BME280;64673;52.276;10.560;2024-02-28T00:42:35;101057.38;;;3.41;100.00
75991;BME280;64673;52.276;10.560;2024-02-28T00:45:00;101069.53;;;3.37;100.00
75991;BME280;64673;52.276;10.560;2024-02-28T00:47:26;101072.34;;;3.42;100.00
75991;BME280;64673;52.276;10.560;2024-02-28T00:49:51;101073.38;;;3.47;100.00
75991;BME280;64673;52.276;10.560;2024-02-28T00:52:16;101070.34;;;3.37;100.00
75991;BME280;64673;52.276;10.560;2024-02-28T00:54:42;101072.81;;;3.25;100.00
75991;BME280;64673;52.276;10.560;2024-02-28T00:57:07;101071.75;;;3.40;100.00
75991;BME280;64673;52.276;10.560;2024-02-28T00:59:33;101075.28;;;3.27;100.00
75991;BME280;64673;52.276;10.560;2024-02-28T01:01:58;101077.13;;;3.20;100.00
75991;BME280;64673;52.276;10.560;2024-02-28T01:04:23;101073.84;;;3.18;100.00
75991;BME280;64673;52.276;10.560;2024-02-28T01:06:48;101084.13;;;3.14;100.00
75991;BME280;64673;52.276;10.560;2024-02-28T01:09:14;101082.47;;;3.20;100.00
75991;BME280;64673;52.276;10.560;2024-02-28T01:11:39;101088.03;;;3.12;100.00
75991;BME280;64673;52.276;10.560;2024-02-28T01:14:04;101090.25;;;3.28;100.00
75991;BME280;64673;52.276;10.560;2024-02-28T01:16:30;101087.97;;;3.38;100.00
75991;BME280;64673;52.276;10.560;2024-02-28T01:18:55;101085.72;;;3.35;100.00
75991;BME280;64673;52.276;10.560;2024-02-28T01:21:21;101087.13;;;3.44;100.00
75991;BME280;64673;52.276;10.560;2024-02-28T01:23:46;101085.31;;;3.38;100.00
75991;BME280;64673;52.276;10.560;2024-02-28T01:26:11;101094.53;;;3.36;100.00
75991;BME280;64673;52.276;10.560;2024-02-28T01:28:37;101090.66;;;3.38;100.00
75991;BME280;64673;52.276;10.560;2024-02-28T01:31:02;101093.91;;;3.34;100.00
75991;BME280;64673;52.276;10.560;2024-02-28T01:33:28;101101.13;;;3.26;100.00
75991;BME280;64673;52.276;10.560;2024-02-28T01:35:53;101097.84;;;3.11;100.00
75991;BME280;64673;52.276;10.560;2024-02-28T01:38:18;101086.56;;;3.09;100.00
75991;BME280;64673;52.276;10.560;2024-02-28T01:40:45;101091.91;;;3.16;100.00
75991;BME280;64673;52.276;10.560;2024-02-28T01:43:11;101073.91;;;3.05;100.00
75991;BME280;64673;52.276;10.560;2024-02-28T01:45:36;101087.84;;;3.07;100.00
75991;BME280;64673;52.276;10.560;2024-02-28T01:48:02;101074.72;;;2.99;100.00
75991;BME280;64673;52.276;10.560;2024-02-28T01:50:30;101064.25;;;3.04;100.00
75991;BME280;64673;52.276;10.560;2024-02-28T01:52:56;101050.91;;;3.17;100.00
75991;BME280;64673;52.276;10.560;2024-02-28T01:55:24;101059.94;;;3.09;100.00
75991;BME280;64673;52.276;10.560;2024-02-28T01:57:51;101059.53;;;3.06;100.00
75991;BME280;64673;52.276;10.560;2024-02-28T02:00:17;101062.22;;;3.06;100.00
75991;BME280;64673;52.276;10.560;2024-02-28T02:02:43;101060.13;;;3.08;100.00
75991;BME280;64673;52.276;10.560;2024-02-28T02:05:09;101062.00;;;3.01;100.00
75991;BME280;64673;52.276;10.560;2024-02-28T02:07:35;101063.03;;;2.86;100.00
75991;BME280;64673;52.276;10.560;2024-02-28T02:10:01;101054.22;;;2.92;100.00
75991;BME280;64673;52.276;10.560;2024-02-28T02:12:26;101057.09;;;2.98;100.00
75991;BME280;64673;52.276;10.560;2024-02-28T02:14:52;101058.31;;;3.02;100.00
75991;BME280;64673;52.276;10.560;2024-02-28T02:17:17;101051.34;;;2.87;100.00
75991;BME280;64673;52.276;10.560;2024-02-28T02:19:42;101055.69;;;2.69;100.00
75991;BME280;64673;52.276;10.560;2024-02-28T02:22:08;101055.88;;;2.67;100.00
75991;BME280;64673;52.276;10.560;2024-02-28T02:24:35;101063.66;;;2.88;100.00
75991;BME280;64673;52.276;10.560;2024-02-28T02:27:01;101064.69;;;2.87;100.00
75991;BME280;64673;52.276;10.560;2024-02-28T02:29:28;101065.50;;;2.81;100.00
75991;BME280;64673;52.276;10.560;2024-02-28T02:31:54;101079.66;;;2.75;100.00
75991;BME280;64673;52.276;10.560;2024-02-28T02:34:19;101072.69;;;2.74;100.00
75991;BME280;64673;52.276;10.560;2024-02-28T02:36:44;101072.28;;;2.71;100.00
75991;BME280;64673;52.276;10.560;2024-02-28T02:39:09;101064.50;;;2.69;100.00
75991;BME280;64673;52.276;10.560;2024-02-28T02:41:35;101054.66;;;2.70;100.00
75991;BME280;64673;52.276;10.560;2024-02-28T02:44:00;101050.16;;;2.70;100.00
75991;BME280;64673;52.276;10.560;2024-02-28T02:46:25;101040.34;;;2.64;100.00
75991;BME280;64673;52.276;10.560;2024-02-28T02:48:51;101052.19;;;2.55;100.00
75991;BME280;64673;52.276;10.560;2024-02-28T02:51:18;101048.50;;;2.49;100.00
75991;BME280;64673;52.276;10.560;2024-02-28T02:53:44;101048.50;;;2.56;100.00
75991;BME280;64673;52.276;10.560;2024-02-28T02:56:09;101054.25;;;2.60;100.00
75991;BME280;64673;52.276;10.560;2024-02-28T02:58:35;101062.84;;;2.42;100.00
75991;BME280;64673;52.276;10.560;2024-02-28T03:01:00;101062.84;;;2.42;100.00
75991;BME280;64673;52.276;10.560;2024-02-28T03:03:25;101060.38;;;2.34;100.00
75991;BME280;64673;52.276;10.560;2024-02-28T03:05:51;101051.38;;;2.35;100.00
75991;BME280;64673;52.276;10.560;2024-02-28T03:08:16;101050.94;;;2.25;100.00
75991;BME280;64673;52.276;10.560;2024-02-28T03:10:41;101050.94;;;2.18;100.00
75991;BME280;64673;52.276;10.560;2024-02-28T03:13:07;101053.81;;;2.16;100.00
75991;BME280;64673;52.276;10.560;2024-02-28T03:15:33;101047.66;;;2.09;100.00
75991;BME280;64673;52.276;10.560;2024-02-28T03:17:59;101046.81;;;2.02;100.00
75991;BME280;64673;52.276;10.560;2024-02-28T03:20:24;101055.41;;;2.04;100.00
75991;BME280;64673;52.276;10.560;2024-02-28T03:22:50;101063.63;;;2.09;100.00
75991;BME280;64673;52.276;10.560;2024-02-28T03:25:16;101061.97;;;2.08;100.00
75991;BME280;64673;52.276;10.560;2024-02-28T03:27:41;101067.28;;;2.02;100.00
75991;BME280;64673;52.276;10.560;2024-02-28T03:30:07;101075.09;;;2.10;100.00
75991;BME280;64673;52.276;10.560;2024-02-28T03:32:32;101072.66;;;2.28;100.00
75991;BME280;64673;52.276;10.560;2024-02-28T03:34:57;101075.13;;;2.36;100.00
75991;BME280;64673;52.276;10.560;2024-02-28T03:37:23;101075.13;;;2.30;100.00
75991;BME280;64673;52.276;10.560;2024-02-28T03:39:48;101073.84;;;2.12;100.00
75991;BME280;64673;52.276;10.560;2024-02-28T03:42:14;101077.53;;;2.05;100.00
75991;BME280;64673;52.276;10.560;2024-02-28T03:44:39;101082.59;;;1.93;100.00
75991;BME280;64673;52.276;10.560;2024-02-28T03:47:04;101082.03;;;2.04;100.00
75991;BME280;64673;52.276;10.560;2024-02-28T03:49:30;101081.63;;;2.01;100.00
75991;BME280;64673;52.276;10.560;2024-02-28T03:51:55;101075.63;;;1.92;100.00
75991;BME280;64673;52.276;10.560;2024-02-28T03:54:20;101071.69;;;1.75;100.00
75991;BME280;64673;52.276;10.560;2024-02-28T03:56:46;101077.78;;;1.62;100.00
75991;BME280;64673;52.276;10.560;2024-02-28T03:59:11;101085.94;;;1.61;100.00
75991;BME280;64673;52.276;10.560;2024-02-28T04:01:36;101084.88;;;1.48;100.00
75991;BME280;64673;52.276;10.560;2024-02-28T04:04:02;101084.34;;;1.66;100.00
75991;BME280;64673;52.276;10.560;2024-02-28T04:06:27;101086.19;;;1.66;100.00
75991;BME280;64673;52.276;10.560;2024-02-28T04:08:53;101094.78;;;1.68;100.00
75991;BME280;64673;52.276;10.560;2024-02-28T04:11:18;101088.78;;;1.53;100.00
75991;BME280;64673;52.276;10.560;2024-02-28T04:13:44;101094.47;;;1.43;100.00
75991;BME280;64673;52.276;10.560;2024-02-28T04:16:10;101101.44;;;1.51;100.00
75991;BME280;64673;52.276;10.560;2024-02-28T04:18:35;101105.81;;;1.58;100.00
75991;BME280;64673;52.276;10.560;2024-02-28T04:21:00;101114.53;;;1.52;100.00
75991;BME280;64673;52.276;10.560;2024-02-28T04:23:26;101117.84;;;1.61;100.00
75991;BME280;64673;52.276;10.560;2024-02-28T04:25:51;101122.41;;;1.67;100.00
75991;BME280;64673;52.276;10.560;2024-02-28T04:28:17;101120.94;;;1.64;100.00
75991;BME280;64673;52.276;10.560;2024-02-28T04:30:42;101125.41;;;1.57;100.00
75991;BME280;64673;52.276;10.560;2024-02-28T04:33:10;101133.91;;;1.80;100.00
75991;BME280;64673;52.276;10.560;2024-02-28T04:35:36;101138.63;;;1.85;100.00
75991;BME280;64673;52.276;10.560;2024-02-28T04:38:01;101138.69;;;1.98;100.00
75991;BME280;64673;52.276;10.560;2024-02-28T04:40:29;101144.22;;;2.03;100.00
75991;BME280;64673;52.276;10.560;2024-02-28T04:42:55;101146.09;;;2.09;100.00
75991;BME280;64673;52.276;10.560;2024-02-28T04:45:20;101155.09;;;2.08;100.00
75991;BME280;64673;52.276;10.560;2024-02-28T04:47:45;101151.03;;;2.19;100.00
75991;BME280;64673;52.276;10.560;2024-02-28T04:50:11;101155.16;;;2.22;100.00
75991;BME280;64673;52.276;10.560;2024-02-28T04:52:36;101148.00;;;2.22;100.00
75991;BME280;64673;52.276;10.560;2024-02-28T04:55:02;101160.25;;;2.23;100.00
75991;BME280;64673;52.276;10.560;2024-02-28T04:57:27;101164.34;;;2.26;100.00
75991;BME280;64673;52.276;10.560;2024-02-28T04:59:53;101168.47;;;2.28;100.00
75991;BME280;64673;52.276;10.560;2024-02-28T05:02:18;101159.06;;;2.32;100.00
75991;BME280;64673;52.276;10.560;2024-02-28T05:04:44;101166.44;;;2.30;100.00
75991;BME280;64673;52.276;10.560;2024-02-28T05:07:09;101167.66;;;2.28;100.00
75991;BME280;64673;52.276;10.560;2024-02-28T05:09:35;101161.75;;;2.32;100.00
75991;BME280;64673;52.276;10.560;2024-02-28T05:12:01;101160.91;;;2.32;100.00
75991;BME280;64673;52.276;10.560;2024-02-28T05:14:26;101167.25;;;2.31;100.00
75991;BME280;64673;52.276;10.560;2024-02-28T05:16:51;101173.81;;;2.35;100.00
75991;BME280;64673;52.276;10.560;2024-02-28T05:19:17;101167.66;;;2.34;100.00
75991;BME280;64673;52.276;10.560;2024-02-28T05:21:45;101170.50;;;2.26;100.00
75991;BME280;64673;52.276;10.560;2024-02-28T05:24:11;101166.84;;;2.34;100.00
75991;BME280;64673;52.276;10.560;2024-02-28T05:26:37;101169.31;;;2.35;100.00
75991;BME280;64673;52.276;10.560;2024-02-28T05:29:04;101172.59;;;2.44;100.00
75991;BME280;64673;52.276;10.560;2024-02-28T05:31:29;101170.75;;;2.38;100.00
75991;BME280;64673;52.276;10.560;2024-02-28T05:33:57;101172.16;;;2.34;100.00
75991;BME280;64673;52.276;10.560;2024-02-28T05:36:24;101172.97;;;2.28;100.00
75991;BME280;64673;52.276;10.560;2024-02-28T05:38:51;101173.78;;;2.22;100.00
75991;BME280;64673;52.276;10.560;2024-02-28T05:41:17;101179.13;;;2.28;100.00
75991;BME280;64673;52.276;10.560;2024-02-28T05:43:46;101179.09;;;2.22;100.00
75991;BME280;64673;52.276;10.560;2024-02-28T05:46:12;101179.53;;;2.32;100.00
75991;BME280;64673;52.276;10.560;2024-02-28T05:48:37;101181.34;;;2.25;100.00
75991;BME280;64673;52.276;10.560;2024-02-28T05:51:04;101190.59;;;2.29;100.00
75991;BME280;64673;52.276;10.560;2024-02-28T05:53:30;101193.88;;;2.31;100.00
75991;BME280;64673;52.276;10.560;2024-02-28T05:56:01;101193.63;;;2.26;100.00
75991;BME280;64673;52.276;10.560;2024-02-28T05:58:26;101191.34;;;2.16;100.00
75991;BME280;64673;52.276;10.560;2024-02-28T06:00:52;101184.81;;;2.18;100.00
75991;BME280;64673;52.276;10.560;2024-02-28T06:03:17;101188.09;;;2.20;100.00
75991;BME280;64673;52.276;10.560;2024-02-28T06:05:43;101195.91;;;2.22;100.00
75991;BME280;64673;52.276;10.560;2024-02-28T06:08:08;101200.59;;;2.27;100.00
75991;BME280;64673;52.276;10.560;2024-02-28T06:10:33;101213.09;;;2.26;100.00
75991;BME280;64673;52.276;10.560;2024-02-28T06:12:59;101215.94;;;2.18;100.00
75991;BME280;64673;52.276;10.560;2024-02-28T06:15:25;101222.00;;;2.05;100.00
75991;BME280;64673;52.276;10.560;2024-02-28T06:17:51;101228.38;;;2.11;100.00
75991;BME280;64673;52.276;10.560;2024-02-28T06:20:16;101225.06;;;2.02;100.00
75991;BME280;64673;52.276;10.560;2024-02-28T06:22:42;101224.03;;;2.03;100.00
75991;BME280;64673;52.276;10.560;2024-02-28T06:25:07;101218.88;;;1.95;100.00
75991;BME280;64673;52.276;10.560;2024-02-28T06:27:39;101230.16;;;1.97;100.00
75991;BME280;64673;52.276;10.560;2024-02-28T06:30:06;101232.78;;;1.91;100.00
75991;BME280;64673;52.276;10.560;2024-02-28T06:32:32;101228.88;;;1.87;100.00
75991;BME280;64673;52.276;10.560;2024-02-28T06:34:57;101234.53;;;1.77;100.00
75991;BME280;64673;52.276;10.560;2024-02-28T06:37:22;101236.13;;;1.71;100.00
75991;BME280;64673;52.276;10.560;2024-02-28T06:39:48;101241.78;;;1.62;100.00
75991;BME280;64673;52.276;10.560;2024-02-28T06:42:13;101238.13;;;1.63;100.00
75991;BME280;64673;52.276;10.560;2024-02-28T06:44:38;101247.91;;;1.56;100.00
75991;BME280;64673;52.276;10.560;2024-02-28T06:47:03;101254.25;;;1.61;100.00
75991;BME280;64673;52.276;10.560;2024-02-28T06:49:29;101261.81;;;1.58;100.00
75991;BME280;64673;52.276;10.560;2024-02-28T06:51:54;101266.25;;;1.51;100.00
75991;BME280;64673;52.276;10.560;2024-02-28T06:54:20;101267.50;;;1.55;100.00
75991;BME280;64673;52.276;10.560;2024-02-28T06:56:45;101275.00;;;1.44;100.00
75991;BME280;64673;52.276;10.560;2024-02-28T06:59:11;101272.84;;;1.55;100.00
75991;BME280;64673;52.276;10.560;2024-02-28T07:01:36;101277.38;;;1.61;100.00
75991;BME280;64673;52.276;10.560;2024-02-28T07:04:01;101274.13;;;1.65;100.00
75991;BME280;64673;52.276;10.560;2024-02-28T07:06:27;101266.19;;;1.72;100.00
75991;BME280;64673;52.276;10.560;2024-02-28T07:08:52;101269.16;;;1.83;100.00
75991;BME280;64673;52.276;10.560;2024-02-28T07:11:18;101260.88;;;2.00;100.00
75991;BME280;64673;52.276;10.560;2024-02-28T07:13:43;101259.16;;;1.92;100.00
75991;BME280;64673;52.276;10.560;2024-02-28T07:16:08;101252.28;;;2.04;100.00
75991;BME280;64673;52.276;10.560;2024-02-28T07:18:34;101254.63;;;1.86;100.00
75991;BME280;64673;52.276;10.560;2024-02-28T07:20:59;101258.03;;;2.01;100.00
75991;BME280;64673;52.276;10.560;2024-02-28T07:23:25;101259.25;;;2.05;100.00
75991;BME280;64673;52.276;10.560;2024-02-28T07:25:51;101260.50;;;2.09;100.00
75991;BME280;64673;52.276;10.560;2024-02-28T07:28:16;101255.38;;;2.08;100.00
75991;BME280;64673;52.276;10.560;2024-02-28T07:30:41;101273.16;;;2.01;100.00
75991;BME280;64673;52.276;10.560;2024-02-28T07:33:09;101272.13;;;2.02;100.00
75991;BME280;64673;52.276;10.560;2024-02-28T07:35:44;101275.22;;;2.05;100.00
75991;BME280;64673;52.276;10.560;2024-02-28T07:38:09;101278.50;;;2.07;100.00
75991;BME280;64673;52.276;10.560;2024-02-28T07:40:35;101284.03;;;2.12;100.00
75991;BME280;64673;52.276;10.560;2024-02-28T07:43:00;101284.31;;;2.24;100.00
75991;BME280;64673;52.276;10.560;2024-02-28T07:45:25;101287.66;;;2.33;100.00
75991;BME280;64673;52.276;10.560;2024-02-28T07:47:51;101283.94;;;2.27;100.00
75991;BME280;64673;52.276;10.560;2024-02-28T07:50:16;101286.84;;;2.32;100.00
75991;BME280;64673;52.276;10.560;2024-02-28T07:52:42;101285.59;;;2.35;100.00
75991;BME280;64673;52.276;10.560;2024-02-28T07:55:08;101288.81;;;2.24;100.00
75991;BME280;64673;52.276;10.560;2024-02-28T07:57:33;101288.44;;;2.27;100.00
75991;BME280;64673;52.276;10.560;2024-02-28T07:59:58;101280.00;;;2.23;100.00
75991;BME280;64673;52.276;10.560;2024-02-28T08:02:24;101281.50;;;2.32;100.00
75991;BME280;64673;52.276;10.560;2024-02-28T08:04:50;101283.56;;;2.37;100.00
75991;BME280;64673;52.276;10.560;2024-02-28T08:07:16;101296.69;;;2.45;100.00
75991;BME280;64673;52.276;10.560;2024-02-28T08:09:41;101289.78;;;2.57;100.00
75991;BME280;64673;52.276;10.560;2024-02-28T08:12:07;101290.16;;;2.41;100.00
75991;BME280;64673;52.276;10.560;2024-02-28T08:14:32;101294.44;;;2.42;100.00
75991;BME280;64673;52.276;10.560;2024-02-28T08:16:57;101288.78;;;2.58;100.00
75991;BME280;64673;52.276;10.560;2024-02-28T08:19:23;101291.06;;;2.68;100.00
75991;BME280;64673;52.276;10.560;2024-02-28T08:21:48;101282.69;;;2.71;100.00
75991;BME280;64673;52.276;10.560;2024-02-28T08:24:14;101296.44;;;2.87;100.00
75991;BME280;64673;52.276;10.560;2024-02-28T08:26:40;101288.28;;;2.96;100.00
75991;BME280;64673;52.276;10.560;2024-02-28T08:29:06;101289.25;;;2.81;100.00
75991;BME280;64673;52.276;10.560;2024-02-28T08:31:31;101297.31;;;2.94;100.00
75991;BME280;64673;52.276;10.560;2024-02-28T08:33:57;101293.38;;;2.90;100.00
75991;BME280;64673;52.276;10.560;2024-02-28T08:36:23;101288.72;;;3.06;100.00
75991;BME280;64673;52.276;10.560;2024-02-28T08:38:48;101299.38;;;3.19;100.00
75991;BME280;64673;52.276;10.560;2024-02-28T08:41:14;101295.72;;;3.40;100.00
75991;BME280;64673;52.276;10.560;2024-02-28T08:43:39;101299.19;;;3.40;100.00
75991;BME280;64673;52.276;10.560;2024-02-28T08:46:05;101294.47;;;3.29;100.00
75991;BME280;64673;52.276;10.560;2024-02-28T08:48:32;101300.66;;;3.36;100.00
75991;BME280;64673;52.276;10.560;2024-02-28T08:50:57;101302.66;;;3.21;100.00
75991;BME280;64673;52.276;10.560;2024-02-28T08:53:22;101300.00;;;3.21;100.00
75991;BME280;64673;52.276;10.560;2024-02-28T08:55:48;101308.00;;;3.21;100.00
75991;BME280;64673;52.276;10.560;2024-02-28T08:58:14;101301.38;;;2.97;100.00
75991;BME280;64673;52.276;10.560;2024-02-28T09:00:39;101303.03;;;2.91;100.00
75991;BME280;64673;52.276;10.560;2024-02-28T09:03:05;101296.25;;;2.89;100.00
75991;BME280;64673;52.276;10.560;2024-02-28T09:05:30;101301.63;;;2.96;100.00
75991;BME280;64673;52.276;10.560;2024-02-28T09:07:56;101297.53;;;3.13;100.00
75991;BME280;64673;52.276;10.560;2024-02-28T09:10:22;101301.66;;;3.15;100.00
75991;BME280;64673;52.276;10.560;2024-02-28T09:12:49;101305.75;;;3.31;100.00
75991;BME280;64673;52.276;10.560;2024-02-28T09:15:15;101295.72;;;3.53;100.00
75991;BME280;64673;52.276;10.560;2024-02-28T09:17:40;101305.16;;;3.75;100.00
75991;BME280;64673;52.276;10.560;2024-02-28T09:20:06;101308.22;;;3.92;100.00
75991;BME280;64673;52.276;10.560;2024-02-28T09:22:32;101310.44;;;4.15;100.00
75991;BME280;64673;52.276;10.560;2024-02-28T09:24:57;101306.72;;;4.22;100.00
75991;BME280;64673;52.276;10.560;2024-02-28T09:27:22;101308.81;;;4.07;100.00
75991;BME280;64673;52.276;10.560;2024-02-28T09:29:49;101300.00;;;4.00;100.00
75991;BME280;64673;52.276;10.560;2024-02-28T09:32:15;101297.69;;;4.23;100.00
75991;BME280;64673;52.276;10.560;2024-02-28T09:34:40;101305.00;;;4.48;100.00
75991;BME280;64673;52.276;10.560;2024-02-28T09:37:05;101299.69;;;4.41;100.00
75991;BME280;64673;52.276;10.560;2024-02-28T09:39:31;101297.22;;;4.39;100.00
75991;BME280;64673;52.276;10.560;2024-02-28T09:41:56;101294.78;;;4.25;100.00
75991;BME280;64673;52.276;10.560;2024-02-28T09:44:22;101293.16;;;4.30;100.00
75991;BME280;64673;52.276;10.560;2024-02-28T09:46:50;101301.53;;;4.40;100.00
75991;BME280;64673;52.276;10.560;2024-02-28T09:49:17;101307.88;;;4.46;100.00
75991;BME280;64673;52.276;10.560;2024-02-28T09:51:43;101310.34;;;4.48;100.00
75991;BME280;64673;52.276;10.560;2024-02-28T09:54:09;101306.41;;;4.57;100.00
75991;BME280;64673;52.276;10.560;2024-02-28T09:56:34;101312.81;;;4.49;100.00
75991;BME280;64673;52.276;10.560;2024-02-28T09:59:01;101315.13;;;4.26;100.00
75991;BME280;64673;52.276;10.560;2024-02-28T10:01:29;101326.41;;;4.34;100.00
75991;BME280;64673;52.276;10.560;2024-02-28T10:03:55;101316.78;;;4.33;100.00
75991;BME280;64673;52.276;10.560;2024-02-28T10:06:21;101324.50;;;4.55;100.00
75991;BME280;64673;52.276;10.560;2024-02-28T10:08:47;101330.03;;;4.60;100.00
75991;BME280;64673;52.276;10.560;2024-02-28T10:11:20;101324.75;;;4.40;100.00
75991;BME280;64673;52.276;10.560;2024-02-28T10:13:49;101328.38;;;4.59;100.00
75991;BME280;64673;52.276;10.560;2024-02-28T10:16:14;101326.81;;;4.45;100.00
75991;BME280;64673;52.276;10.560;2024-02-28T10:18:44;101344.13;;;4.22;100.00
75991;BME280;64673;52.276;10.560;2024-02-28T10:21:10;101342.03;;;4.24;100.00
75991;BME280;64673;52.276;10.560;2024-02-28T10:23:37;101351.91;;;4.30;100.00
75991;BME280;64673;52.276;10.560;2024-02-28T10:26:02;101348.31;;;4.56;100.00
75991;BME280;64673;52.276;10.560;2024-02-28T10:28:28;101354.19;;;4.78;100.00
75991;BME280;64673;52.276;10.560;2024-02-28T10:30:54;101353.53;;;4.89;100.00
75991;BME280;64673;52.276;10.560;2024-02-28T10:33:19;101354.41;;;4.83;100.00
75991;BME280;64673;52.276;10.560;2024-02-28T10:35:45;101357.59;;;4.54;100.00
75991;BME280;64673;52.276;10.560;2024-02-28T10:38:11;101358.78;;;4.64;100.00
75991;BME280;64673;52.276;10.560;2024-02-28T10:40:39;101365.81;;;4.52;100.00
75991;BME280;64673;52.276;10.560;2024-02-28T10:43:07;101369.84;;;4.68;100.00
75991;BME280;64673;52.276;10.560;2024-02-28T10:45:37;101379.00;;;4.27;100.00
75991;BME280;64673;52.276;10.560;2024-02-28T10:48:04;101379.00;;;4.34;100.00
75991;BME280;64673;52.276;10.560;2024-02-28T10:50:30;101369.91;;;4.55;100.00
75991;BME280;64673;52.276;10.560;2024-02-28T10:53:01;101363.25;;;4.77;100.00
75991;BME280;64673;52.276;10.560;2024-02-28T10:55:32;101368.94;;;4.94;100.00
75991;BME280;64673;52.276;10.560;2024-02-28T10:58:08;101360.16;;;5.25;100.00
75991;BME280;64673;52.276;10.560;2024-02-28T11:00:36;101362.81;;;5.56;100.00
75991;BME280;64673;52.276;10.560;2024-02-28T11:03:03;101371.16;;;5.41;100.00
75991;BME280;64673;52.276;10.560;2024-02-28T11:05:40;101369.16;;;5.30;100.00
75991;BME280;64673;52.276;10.560;2024-02-28T11:08:26;101363.03;;;5.23;100.00
75991;BME280;64673;52.276;10.560;2024-02-28T11:10:57;101360.34;;;5.23;100.00
75991;BME280;64673;52.276;10.560;2024-02-28T11:13:23;101354.03;;;5.18;100.00
75991;BME280;64673;52.276;10.560;2024-02-28T11:15:49;101363.69;;;5.19;100.00
75991;BME280;64673;52.276;10.560;2024-02-28T11:18:15;101366.38;;;5.19;100.00
75991;BME280;64673;52.276;10.560;2024-02-28T11:20:40;101357.25;;;4.88;100.00
75991;BME280;64673;52.276;10.560;2024-02-28T11:23:06;101363.19;;;4.97;100.00
75991;BME280;64673;52.276;10.560;2024-02-28T11:25:32;101358.63;;;5.04;100.00
75991;BME280;64673;52.276;10.560;2024-02-28T11:27:57;101350.19;;;5.07;100.00
75991;BME280;64673;52.276;10.560;2024-02-28T11:30:24;101346.50;;;5.33;100.00
75991;BME280;64673;52.276;10.560;2024-02-28T11:32:52;101358.00;;;5.40;100.00
75991;BME280;64673;52.276;10.560;2024-02-28T11:35:18;101355.16;;;5.35;100.00
75991;BME280;64673;52.276;10.560;2024-02-28T11:37:45;101356.03;;;5.22;100.00
75991;BME280;64673;52.276;10.560;2024-02-28T11:40:11;101346.59;;;5.51;100.00
75991;BME280;64673;52.276;10.560;2024-02-28T11:42:38;101342.16;;;5.70;100.00
75991;BME280;64673;52.276;10.560;2024-02-28T11:45:04;101346.34;;;5.59;100.00
75991;BME280;64673;52.276;10.560;2024-02-28T11:47:31;101349.19;;;5.64;100.00
75991;BME280;64673;52.276;10.560;2024-02-28T11:50:01;101350.09;;;5.51;100.00
75991;BME280;64673;52.276;10.560;2024-02-28T11:52:27;101336.97;;;5.43;100.00
75991;BME280;64673;52.276;10.560;2024-02-28T11:54:53;101341.56;;;5.36;100.00
75991;BME280;64673;52.276;10.560;2024-02-28T11:57:19;101339.66;;;5.43;100.00
75991;BME280;64673;52.276;10.560;2024-02-28T11:59:44;101326.81;;;5.52;100.00
75991;BME280;64673;52.276;10.560;2024-02-28T12:02:13;101332.84;;;5.47;100.00
75991;BME280;64673;52.276;10.560;2024-02-28T12:04:43;101335.31;;;5.49;100.00
75991;BME280;64673;52.276;10.560;2024-02-28T12:07:09;101338.19;;;5.47;100.00
75991;BME280;64673;52.276;10.560;2024-02-28T12:09:34;101327.00;;;5.57;100.00
75991;BME280;64673;52.276;10.560;2024-02-28T12:12:02;101332.50;;;5.62;100.00
75991;BME280;64673;52.276;10.560;2024-02-28T12:14:36;101324.50;;;5.87;100.00
75991;BME280;64673;52.276;10.560;2024-02-28T12:17:03;101330.97;;;5.73;100.00
75991;BME280;64673;52.276;10.560;2024-02-28T12:19:29;101332.13;;;5.90;100.00
75991;BME280;64673;52.276;10.560;2024-02-28T12:21:54;101330.88;;;5.93;100.00
75991;BME280;64673;52.276;10.560;2024-02-28T12:24:20;101333.91;;;5.71;100.00
75991;BME280;64673;52.276;10.560;2024-02-28T12:26:46;101327.44;;;5.54;100.00
75991;BME280;64673;52.276;10.560;2024-02-28T12:29:12;101331.97;;;5.53;100.00
75991;BME280;64673;52.276;10.560;2024-02-28T12:31:37;101329.41;;;5.65;100.00
75991;BME280;64673;52.276;10.560;2024-02-28T12:34:03;101330.41;;;5.96;100.00